Time;durP1;ratioP1;P1;durP2;ratioP2;P2;SDS_P1;SDS_P2;PMS_P1;PMS_P2;Temp;Humidity;BMP_temperature;BMP_pressure;BME280_temperature;BME280_humidity;BME280_pressure;Samples;Min_cycle;Max_cycle;Signal;HPM_P1;HPM_P2
2023/07/05 00:00:30;;;;;;;3.13;1.77;;;;;;;15.82;81.46;95792.53;2114198;28;20047;-57
2023/07/05 00:01:31;;;;;;;3.65;1.77;;;;;;;15.73;80.93;95780.13;2114993;28;20043;-57
2023/07/05 00:02:32;;;;;;;4.63;1.95;;;;;;;15.81;81.05;95786.47;2114958;28;20035;-57
2023/07/05 00:03:33;;;;;;;4.00;1.77;;;;;;;15.79;80.31;95787.53;2114234;28;20055;-57
2023/07/05 00:04:34;;;;;;;6.90;2.13;;;;;;;15.74;80.77;95779.16;2115204;28;20043;-56
2023/07/05 00:05:36;;;;;;;3.67;1.90;;;;;;;15.83;80.54;95789.81;2105817;28;20063;-57
2023/07/05 00:06:37;;;;;;;6.82;1.77;;;;;;;15.84;80.31;95790.66;2105274;28;20115;-57
2023/07/05 00:07:38;;;;;;;10.98;2.30;;;;;;;15.85;80.17;95792.31;2115249;28;20043;-57
2023/07/05 00:08:40;;;;;;;3.22;1.90;;;;;;;15.85;80.82;95792.31;2114803;28;20043;-57
2023/07/05 00:09:41;;;;;;;4.38;1.60;;;;;;;15.87;81.08;95788.63;2114851;28;20043;-57
2023/07/05 00:10:42;;;;;;;2.83;1.63;;;;;;;15.82;79.93;95782.06;2114356;28;20051;-59
2023/07/05 00:11:43;;;;;;;3.25;1.83;;;;;;;15.88;79.96;95798.19;2114555;28;20062;-57
2023/07/05 00:12:44;;;;;;;4.00;2.13;;;;;;;15.81;80.09;95781.22;2114893;28;20048;-58
2023/07/05 00:13:45;;;;;;;4.13;1.75;;;;;;;15.89;79.66;95796.41;2114273;28;20048;-56
2023/07/05 00:14:46;;;;;;;3.90;2.00;;;;;;;15.90;80.10;95798.06;2113854;28;20044;-56
2023/07/05 00:15:48;;;;;;;4.80;1.75;;;;;;;15.91;79.96;95791.91;2114386;28;20047;-57
2023/07/05 00:16:49;;;;;;;3.30;1.67;;;;;;;15.93;79.87;95800.50;2115098;28;20050;-57
2023/07/05 00:17:50;;;;;;;3.15;1.55;;;;;;;15.94;79.79;95806.56;2114434;28;20058;-57
2023/07/05 00:18:51;;;;;;;3.55;1.73;;;;;;;15.95;79.78;95808.22;2114745;28;20498;-57
2023/07/05 00:19:53;;;;;;;4.50;1.77;;;;;;;15.94;79.63;95823.09;2114344;28;20055;-56
2023/07/05 00:20:59;;;;;;;3.38;1.80;;;;;;;15.94;81.08;95851.91;2115057;28;20498;-56
2023/07/05 00:22:00;;;;;;;4.28;1.70;;;;;;;15.95;80.98;95882.38;2115895;28;20074;-56
2023/07/05 00:23:01;;;;;;;3.85;1.80;;;;;;;15.93;80.56;95897.38;2116680;28;20047;-56
2023/07/05 00:24:02;;;;;;;4.15;1.95;;;;;;;15.92;81.19;95893.06;2116056;28;20058;-56
2023/07/05 00:25:04;;;;;;;5.60;2.25;;;;;;;15.88;80.79;95902.09;2116600;28;20046;-56
2023/07/05 00:26:05;;;;;;;3.58;2.17;;;;;;;15.86;80.76;95878.63;2116671;28;20482;-56
2023/07/05 00:27:06;;;;;;;4.85;2.33;;;;;;;15.92;80.90;95868.66;2115469;28;20062;-56
2023/07/05 00:28:08;;;;;;;2.83;1.80;;;;;;;15.97;79.43;95863.94;2116653;28;20418;-56
2023/07/05 00:29:09;;;;;;;2.88;1.98;;;;;;;16.07;78.51;95871.03;2115834;28;20054;-56
2023/07/05 00:30:10;;;;;;;4.05;2.10;;;;;;;16.14;78.41;95878.47;2107508;28;20050;-56
2023/07/05 00:31:11;;;;;;;5.32;2.05;;;;;;;16.25;78.02;95879.38;2107401;28;20032;-56
2023/07/05 00:32:12;;;;;;;4.00;1.90;;;;;;;16.37;76.23;95882.91;2116603;28;20051;-56
2023/07/05 00:33:14;;;;;;;4.53;2.13;;;;;;;16.46;75.39;95886.63;2115998;28;20462;-56
2023/07/05 00:34:15;;;;;;;5.15;2.20;;;;;;;16.60;74.69;95888.25;2115966;28;20051;-56
2023/07/05 00:35:16;;;;;;;4.45;2.40;;;;;;;16.65;74.33;95880.88;2116329;28;20059;-58
2023/07/05 00:36:17;;;;;;;3.30;1.90;;;;;;;16.72;74.42;95882.13;2116039;28;20410;-56
2023/07/05 00:37:18;;;;;;;2.97;1.80;;;;;;;16.73;73.80;95879.38;2115894;28;20058;-56
2023/07/05 00:38:19;;;;;;;4.82;2.20;;;;;;;16.73;73.81;95870.66;2116527;28;20046;-56
2023/07/05 00:39:20;;;;;;;3.13;2.10;;;;;;;16.76;73.07;95878.34;2115893;28;20407;-56
2023/07/05 00:40:21;;;;;;;3.80;2.42;;;;;;;16.80;73.28;95884.22;2115771;28;20371;-56
2023/07/05 00:41:22;;;;;;;5.57;2.45;;;;;;;16.78;73.31;95879.06;2116555;28;20054;-56
2023/07/05 00:42:24;;;;;;;3.85;2.47;;;;;;;16.69;73.07;95861.38;2115913;28;20066;-56
2023/07/05 00:43:25;;;;;;;3.53;2.40;;;;;;;16.80;72.98;95881.59;2106437;28;20522;-56
2023/07/05 00:44:26;;;;;;;5.88;2.20;;;;;;;16.79;73.59;95887.78;2106845;28;20052;-56
2023/07/05 00:45:43;;;;;;;4.65;2.47;;;;;;;16.78;73.52;95886.09;2106929;28;20055;-56
2023/07/05 00:46:46;;;;;;;6.47;2.47;;;;;;;16.67;73.67;95871.13;2109386;28;20040;-56
2023/07/05 00:47:47;;;;;;;4.93;2.25;;;;;;;16.79;73.76;95893.88;2106411;28;20391;-56
2023/07/05 00:48:53;;;;;;;5.13;2.30;;;;;;;16.74;73.65;95888.91;2099000;28;20100;-56
2023/07/05 00:49:57;;;;;;;5.03;2.30;;;;;;;16.69;75.41;95890.22;2107818;28;20052;-56
2023/07/05 00:51:01;;;;;;;5.63;2.38;;;;;;;16.51;77.32;95892.38;2090278;28;20056;-57
2023/07/05 00:52:06;;;;;;;3.88;2.25;;;;;;;16.27;77.85;95893.19;2083898;28;20520;-56
2023/07/05 00:53:07;;;;;;;3.22;1.90;;;;;;;15.95;77.46;95885.00;2091113;28;20041;-56
2023/07/05 00:54:08;;;;;;;5.20;2.50;;;;;;;15.80;80.44;95891.31;2082477;28;20054;-56
2023/07/05 00:55:09;;;;;;;11.52;3.17;;;;;;;15.58;84.54;95894.53;2099034;28;20476;-55
2023/07/05 00:56:20;;;;;;;8.50;2.92;;;;;;;15.29;85.65;95870.34;2116496;28;20035;-54
2023/07/05 00:57:26;;;;;;;3.47;1.50;;;;;;;15.21;71.03;95840.34;2098610;28;20052;-55
2023/07/05 00:58:27;;;;;;;7.32;1.90;;;;;;;15.15;74.73;95858.22;2083611;28;20049;-56
2023/07/05 00:59:31;;;;;;;4.75;2.60;;;;;;;14.90;84.46;95869.50;2090694;28;20469;-56
2023/07/05 01:00:32;;;;;;;6.35;2.58;;;;;;;14.74;86.17;95867.06;2099408;28;20055;-57
2023/07/05 01:01:33;;;;;;;8.32;3.10;;;;;;;14.66;87.80;95859.72;2106582;28;20059;-57
2023/07/05 01:02:40;;;;;;;7.10;2.75;;;;;;;14.59;90.38;95844.53;2106886;28;20507;-56
2023/07/05 01:03:41;;;;;;;8.15;2.83;;;;;;;14.59;92.21;95844.53;2099678;28;20051;-57
2023/07/05 01:04:44;;;;;;;7.60;3.10;;;;;;;14.40;93.70;95822.19;2090791;28;20144;-56
2023/07/05 01:05:45;;;;;;;7.60;2.22;;;;;;;14.49;93.82;95826.00;2090531;28;20472;-56
2023/07/05 01:06:47;;;;;;;9.25;3.00;;;;;;;14.48;94.64;95824.28;2090651;28;20041;-57
2023/07/05 01:07:49;;;;;;;5.28;2.50;;;;;;;14.42;95.08;95816.88;2098585;28;20056;-56
2023/07/05 01:08:51;;;;;;;6.88;2.58;;;;;;;14.36;94.80;95806.81;2107290;28;20040;-57
2023/07/05 01:09:53;;;;;;;6.93;2.78;;;;;;;14.41;95.26;95823.03;2107142;28;20044;-57
2023/07/05 01:10:59;;;;;;;6.20;2.53;;;;;;;14.36;95.97;95812.88;2106810;28;20052;-57
2023/07/05 01:12:09;;;;;;;9.02;2.97;;;;;;;14.46;97.58;95818.31;2115693;28;20047;-57
2023/07/05 01:13:16;;;;;;;5.38;2.60;;;;;;;14.43;97.64;95815.91;2106383;28;20040;-56
2023/07/05 01:14:24;;;;;;;9.50;2.90;;;;;;;14.29;97.93;95801.97;2099157;28;20409;-57
2023/07/05 01:15:33;;;;;;;6.43;2.78;;;;;;;14.39;97.62;95819.69;2083794;28;20057;-57
2023/07/05 01:17:14;;;;;;;3.97;2.47;;;;;;;14.31;96.61;95812.34;2069523;28;20054;-57
2023/07/05 01:18:34;;;;;;;5.28;2.28;;;;;;;14.31;96.39;95813.16;2069717;28;20398;-57
2023/07/05 01:19:41;;;;;;;6.90;2.95;;;;;;;14.31;96.48;95810.56;2109431;28;20048;-57
2023/07/05 01:21:04;;;;;;;7.47;2.92;;;;;;;14.30;97.43;95803.66;2115508;28;20050;-57
2023/07/05 01:22:07;;;;;;;7.32;2.92;;;;;;;14.31;97.50;95800.13;2116340;28;20047;-55
2023/07/05 01:23:50;;;;;;;8.43;2.75;;;;;;;14.32;98.18;95816.63;2089813;28;20060;-56
2023/07/05 01:25:22;;;;;;;4.95;2.97;;;;;;;14.21;98.11;95801.63;2078768;28;20060;-56
2023/07/05 01:26:38;;;;;;;6.35;2.90;;;;;;;14.21;98.11;95803.41;2045389;29;20058;-56
2023/07/05 01:28:14;;;;;;;8.15;3.28;;;;;;;14.21;97.92;95796.41;2075881;28;20044;-55
2023/07/05 01:29:52;;;;;;;7.25;3.00;;;;;;;14.21;98.98;95795.59;2079118;28;20148;-56
2023/07/05 01:30:58;;;;;;;7.40;3.15;;;;;;;14.31;99.34;95788.84;2101141;28;20052;-56
2023/07/05 01:32:04;;;;;;;7.07;3.20;;;;;;;14.27;99.87;95796.03;2110604;28;20031;-55
2023/07/05 01:33:17;;;;;;;7.18;3.00;;;;;;;14.21;100.00;95799.03;2097893;28;20044;-55
2023/07/05 01:34:18;;;;;;;5.93;2.47;;;;;;;14.20;100.00;95793.91;2091285;28;20045;-55
2023/07/05 01:35:25;;;;;;;6.13;3.00;;;;;;;14.07;100.00;95779.03;2098638;28;20472;-56
2023/07/05 01:36:26;;;;;;;8.68;3.30;;;;;;;14.15;100.00;95786.38;2090325;28;20065;-55
2023/07/05 01:37:34;;;;;;;6.00;2.88;;;;;;;14.16;100.00;95790.66;2082100;28;20052;-56
2023/07/05 01:38:35;;;;;;;8.45;3.17;;;;;;;14.14;100.00;95784.72;2100089;28;20070;-56
2023/07/05 01:39:36;;;;;;;7.13;3.40;;;;;;;14.16;100.00;95788.03;2115483;28;20066;-55
2023/07/05 01:40:37;;;;;;;7.30;3.50;;;;;;;14.15;100.00;95794.22;2116342;28;20398;-55
2023/07/05 01:41:38;;;;;;;5.55;3.33;;;;;;;14.14;100.00;95784.72;2115068;28;20052;-56
2023/07/05 01:42:40;;;;;;;6.55;3.45;;;;;;;14.07;100.00;95767.75;2116020;28;20470;-56
2023/07/05 01:43:41;;;;;;;4.68;3.13;;;;;;;14.03;100.00;95755.81;2089893;28;20060;-56
2023/07/05 01:44:42;;;;;;;5.97;3.33;;;;;;;14.27;100.00;95784.72;2082219;28;20045;-56
2023/07/05 01:46:09;;;;;;;5.93;3.33;;;;;;;14.24;100.00;95771.88;2090065;28;20057;-56
2023/07/05 01:47:15;;;;;;;7.07;3.88;;;;;;;14.28;100.00;95787.25;2107103;28;20512;-55
2023/07/05 01:48:47;;;;;;;7.60;3.53;;;;;;;14.22;100.00;95785.06;2106718;28;20056;-55
2023/07/05 01:49:54;;;;;;;5.30;2.97;;;;;;;14.22;100.00;95792.88;2106852;28;20047;-57
2023/07/05 01:50:57;;;;;;;6.30;3.45;;;;;;;14.19;100.00;95795.66;2107867;28;20044;-57
2023/07/05 01:52:09;;;;;;;9.90;4.07;;;;;;;14.14;100.00;95792.53;2107095;28;20063;-57
2023/07/05 01:53:21;;;;;;;5.63;3.00;;;;;;;14.04;100.00;95776.63;2083183;28;20076;-57
2023/07/05 01:54:34;;;;;;;4.47;2.90;;;;;;;14.12;100.00;95784.81;2087376;28;20060;-56
2023/07/05 01:55:39;;;;;;;5.95;3.70;;;;;;;14.11;100.00;95779.66;2108909;28;20507;-56
2023/07/05 01:57:23;;;;;;;10.15;3.58;;;;;;;14.14;100.00;95787.31;2097767;28;20055;-56
2023/07/05 01:58:26;;;;;;;7.65;3.38;;;;;;;14.15;100.00;95781.16;2093551;28;20059;-56
2023/07/05 01:59:30;;;;;;;6.03;3.13;;;;;;;14.10;100.00;95776.22;2089911;28;20049;-56
2023/07/05 02:00:31;;;;;;;6.13;2.88;;;;;;;14.08;100.00;95770.25;2090449;28;20099;-57
2023/07/05 02:01:33;;;;;;;7.97;3.55;;;;;;;14.18;100.00;95787.94;2090183;28;20053;-56
2023/07/05 02:02:38;;;;;;;9.55;4.03;;;;;;;14.16;100.00;95781.97;2081993;28;20049;-56
2023/07/05 02:03:41;;;;;;;7.38;3.42;;;;;;;14.12;100.00;95776.97;2067112;28;20046;-56
2023/07/05 02:04:42;;;;;;;10.35;3.38;;;;;;;14.12;100.00;95773.53;2082694;28;20064;-56
2023/07/05 02:05:43;;;;;;;5.78;2.90;;;;;;;14.13;100.00;95773.41;2098607;28;20048;-57
2023/07/05 02:06:45;;;;;;;6.22;3.30;;;;;;;14.15;100.00;95770.72;2098149;28;20044;-57
2023/07/05 02:07:48;;;;;;;8.10;3.28;;;;;;;14.17;100.00;95768.84;2082433;28;20096;-56
2023/07/05 02:08:49;;;;;;;6.00;3.28;;;;;;;14.17;100.00;95765.41;2074512;28;20403;-57
2023/07/05 02:09:52;;;;;;;6.90;3.20;;;;;;;14.26;100.00;95776.06;2089737;28;20044;-57
2023/07/05 02:10:53;;;;;;;8.82;3.47;;;;;;;14.29;100.00;95767.19;2106414;28;20066;-57
2023/07/05 02:11:54;;;;;;;9.70;2.90;;;;;;;14.29;100.00;95764.59;2115013;28;20055;-56
2023/07/05 02:12:56;;;;;;;8.32;2.60;;;;;;;14.31;100.00;95757.50;2115214;28;20055;-56
2023/07/05 02:13:57;;;;;;;8.45;3.33;;;;;;;14.32;100.00;95746.91;2105788;28;20522;-56
2023/07/05 02:14:58;;;;;;;5.90;3.25;;;;;;;14.30;100.00;95751.44;2106886;28;20044;-56
2023/07/05 02:16:01;;;;;;;6.80;3.28;;;;;;;14.29;100.00;95757.56;2106612;28;20051;-56
2023/07/05 02:17:03;;;;;;;7.97;3.08;;;;;;;14.26;100.00;95749.94;2106050;28;20048;-56
2023/07/05 02:18:05;;;;;;;6.55;3.03;;;;;;;14.21;100.00;95738.97;2114929;28;20055;-57
2023/07/05 02:19:08;;;;;;;8.65;3.28;;;;;;;14.24;100.00;95749.19;2106169;28;20048;-56
2023/07/05 02:20:09;;;;;;;9.63;2.95;;;;;;;14.24;100.00;95757.03;2106977;28;20044;-55
2023/07/05 02:21:11;;;;;;;5.90;3.10;;;;;;;14.21;100.00;95748.56;2106759;28;20040;-56
2023/07/05 02:22:12;;;;;;;6.20;3.22;;;;;;;14.08;100.00;95748.53;2105649;28;20132;-56
2023/07/05 02:23:13;;;;;;;7.47;3.20;;;;;;;14.10;100.00;95752.72;2115078;28;20055;-56
2023/07/05 02:24:14;;;;;;;5.72;3.35;;;;;;;14.08;100.00;95759.81;2115768;28;20502;-56
2023/07/05 02:25:15;;;;;;;7.63;3.40;;;;;;;14.05;100.00;95749.56;2115033;28;20056;-56
2023/07/05 02:26:16;;;;;;;7.10;2.97;;;;;;;14.06;100.00;95746.03;2115646;28;20473;-56
2023/07/05 02:27:17;;;;;;;6.68;3.10;;;;;;;14.03;100.00;95733.19;2115885;28;20061;-56
2023/07/05 02:28:19;;;;;;;11.98;3.35;;;;;;;14.06;100.00;95740.81;2115804;28;20043;-56
2023/07/05 02:29:20;;;;;;;10.20;3.50;;;;;;;13.96;100.00;95726.69;2114913;28;20050;-56
2023/07/05 02:30:22;;;;;;;6.68;3.42;;;;;;;13.93;100.00;95713.00;2114913;28;20055;-56
2023/07/05 02:31:23;;;;;;;7.72;3.53;;;;;;;13.97;100.00;95735.34;2115764;28;20099;-56
2023/07/05 02:32:26;;;;;;;6.45;3.13;;;;;;;13.88;100.00;95729.78;2115506;28;20439;-56
2023/07/05 02:33:27;;;;;;;8.77;3.78;;;;;;;13.88;100.00;95735.00;2115654;28;20043;-56
2023/07/05 02:34:29;;;;;;;6.38;3.40;;;;;;;13.86;100.00;95731.66;2115060;28;20074;-56
2023/07/05 02:35:36;;;;;;;5.57;3.25;;;;;;;13.82;100.00;95729.31;2115675;28;20043;-56
2023/07/05 02:36:38;;;;;;;6.68;4.00;;;;;;;13.81;100.00;95738.94;2106037;28;20063;-56
2023/07/05 02:37:39;;;;;;;8.90;3.67;;;;;;;13.81;100.00;95745.94;2106639;28;20044;-56
2023/07/05 02:38:40;;;;;;;10.60;3.95;;;;;;;13.77;100.00;95750.53;2115483;28;20437;-56
2023/07/05 02:39:41;;;;;;;6.40;4.28;;;;;;;13.74;100.00;95750.72;2105898;28;20056;-56
2023/07/05 02:40:49;;;;;;;6.32;4.22;;;;;;;13.75;100.00;95757.59;2106307;28;20052;-56
2023/07/05 02:41:50;;;;;;;7.07;3.80;;;;;;;13.69;100.00;95752.78;2114835;28;20399;-56
2023/07/05 02:42:51;;;;;;;5.82;3.67;;;;;;;13.72;100.00;95760.41;2115464;28;20047;-56
2023/07/05 02:43:52;;;;;;;11.57;4.75;;;;;;;13.71;100.00;95752.66;2105619;28;20044;-56
2023/07/05 02:44:55;;;;;;;7.38;4.30;;;;;;;13.71;100.00;95742.22;2105587;28;20438;-56
2023/07/05 02:45:56;;;;;;;7.15;3.42;;;;;;;13.66;100.00;95732.94;2106290;28;20041;-56
2023/07/05 02:46:58;;;;;;;7.82;3.95;;;;;;;13.67;100.00;95739.81;2106544;28;20047;-56
2023/07/05 02:47:59;;;;;;;8.70;4.43;;;;;;;13.69;100.00;95742.34;2115388;28;20043;-56
2023/07/05 02:49:00;;;;;;;10.57;4.60;;;;;;;13.61;100.00;95727.16;2105729;28;20063;-56
2023/07/05 02:50:01;;;;;;;8.07;4.10;;;;;;;13.63;100.00;95742.72;2106587;28;20055;-56
2023/07/05 02:51:02;;;;;;;10.32;3.92;;;;;;;13.61;100.00;95745.44;2106294;28;20040;-56
2023/07/05 02:52:04;;;;;;;10.27;4.78;;;;;;;13.59;100.00;95736.84;2106107;28;20415;-56
2023/07/05 02:53:05;;;;;;;7.22;4.68;;;;;;;13.57;100.00;95741.31;2115413;28;20039;-56
2023/07/05 02:54:07;;;;;;;10.02;4.60;;;;;;;13.48;100.00;95730.66;2115404;28;20040;-56
2023/07/05 02:55:08;;;;;;;9.80;5.07;;;;;;;13.42;100.00;95722.28;2115387;28;20055;-56
2023/07/05 02:56:10;;;;;;;7.40;4.50;;;;;;;13.50;100.00;95736.59;2115491;28;20129;-56
2023/07/05 02:57:11;;;;;;;7.32;4.35;;;;;;;13.49;100.00;95737.53;2106480;28;20143;-56
2023/07/05 02:58:12;;;;;;;11.13;4.82;;;;;;;13.44;100.00;95743.03;2106311;28;20036;-56
2023/07/05 02:59:13;;;;;;;10.65;4.97;;;;;;;13.45;100.00;95740.34;2115606;28;20494;-56
2023/07/05 03:00:14;;;;;;;8.00;4.85;;;;;;;13.52;100.00;95751.22;2115289;28;20042;-56
2023/07/05 03:01:16;;;;;;;11.15;5.40;;;;;;;13.55;100.00;95750.19;2114737;28;20048;-56
2023/07/05 03:02:17;;;;;;;10.05;5.30;;;;;;;13.61;100.00;95755.03;2114379;28;20051;-56
2023/07/05 03:03:20;;;;;;;10.00;5.53;;;;;;;13.60;100.00;95745.53;2114787;28;20058;-56
2023/07/05 03:04:24;;;;;;;10.85;5.90;;;;;;;13.68;100.00;95746.72;2105832;28;20162;-56
2023/07/05 03:05:25;;;;;;;9.70;5.28;;;;;;;13.71;100.00;95742.22;2105433;28;20071;-56
2023/07/05 03:06:26;;;;;;;9.98;4.55;;;;;;;13.74;100.00;95745.50;2114996;28;20048;-56
2023/07/05 03:07:27;;;;;;;9.18;4.88;;;;;;;13.75;100.00;95749.78;2105385;28;20051;-56
2023/07/05 03:08:30;;;;;;;9.13;5.53;;;;;;;13.72;100.00;95752.59;2106453;28;20451;-56
2023/07/05 03:09:32;;;;;;;10.82;5.20;;;;;;;13.76;100.00;95750.59;2115416;28;20122;-61
2023/07/05 03:10:36;;;;;;;11.63;5.30;;;;;;;13.76;100.00;95754.03;2105816;28;20056;-60
2023/07/05 03:11:37;;;;;;;13.77;5.43;;;;;;;13.78;100.00;95752.19;2098056;28;20064;-61
2023/07/05 03:12:39;;;;;;;8.70;5.43;;;;;;;13.81;100.00;95751.16;2098020;28;20052;-61
2023/07/05 03:13:40;;;;;;;11.32;5.40;;;;;;;13.80;100.00;95755.53;2097770;28;20423;-60
2023/07/05 03:14:41;;;;;;;12.07;5.10;;;;;;;13.81;100.00;95748.53;2105290;28;20063;-60
2023/07/05 03:15:43;;;;;;;7.00;4.82;;;;;;;13.83;100.00;95751.91;2114619;28;20055;-60
2023/07/05 03:16:44;;;;;;;11.02;5.43;;;;;;;13.81;100.00;95749.38;2114766;28;20055;-60
2023/07/05 03:17:45;;;;;;;6.75;4.38;;;;;;;13.81;100.00;95749.38;2114673;28;20415;-61
2023/07/05 03:18:46;;;;;;;7.35;4.50;;;;;;;13.83;100.00;95739.69;2114536;28;20050;-61
2023/07/05 03:19:47;;;;;;;8.25;5.20;;;;;;;13.83;100.00;95746.69;2115354;28;20043;-61
2023/07/05 03:20:48;;;;;;;8.13;4.65;;;;;;;13.74;100.00;95737.66;2114144;28;20403;-60
2023/07/05 03:21:49;;;;;;;14.73;4.88;;;;;;;13.80;100.00;95755.53;2114427;28;20063;-60
2023/07/05 03:22:50;;;;;;;8.50;5.18;;;;;;;13.77;100.00;95750.53;2106315;28;20422;-61
2023/07/05 03:23:52;;;;;;;6.93;4.85;;;;;;;13.78;100.00;95741.75;2106097;28;20074;-61
2023/07/05 03:24:53;;;;;;;9.13;5.20;;;;;;;13.80;100.00;95747.72;2097661;28;20400;-61
2023/07/05 03:25:57;;;;;;;10.00;5.18;;;;;;;13.81;100.00;95746.75;2106184;28;20043;-60
2023/07/05 03:26:59;;;;;;;9.10;5.15;;;;;;;13.77;100.00;95740.09;2106155;28;20455;-60
2023/07/05 03:28:02;;;;;;;7.35;5.18;;;;;;;13.77;100.00;95744.47;2106084;28;20059;-60
2023/07/05 03:29:03;;;;;;;11.02;5.75;;;;;;;13.57;100.00;95723.06;2105399;28;20044;-60
2023/07/05 03:30:05;;;;;;;11.43;5.15;;;;;;;13.70;100.00;95751.84;2105488;28;20056;-61
2023/07/05 03:31:11;;;;;;;7.82;5.10;;;;;;;13.59;100.00;95746.47;2105187;28;20044;-60
2023/07/05 03:32:13;;;;;;;6.30;4.47;;;;;;;13.66;100.00;95755.59;2098690;28;20499;-60
2023/07/05 03:33:15;;;;;;;8.70;5.10;;;;;;;13.65;100.00;95757.34;2105176;28;20059;-60
2023/07/05 03:34:16;;;;;;;11.52;5.75;;;;;;;13.55;100.00;95734.53;2114462;28;20056;-60
2023/07/05 03:35:18;;;;;;;9.85;5.50;;;;;;;13.64;100.00;95760.88;2105905;28;20040;-60
2023/07/05 03:36:19;;;;;;;9.00;5.22;;;;;;;13.64;100.00;95754.84;2097560;28;20052;-60
2023/07/05 03:37:20;;;;;;;7.25;5.22;;;;;;;13.61;100.00;95750.66;2106014;28;20048;-60
2023/07/05 03:38:24;;;;;;;10.15;5.25;;;;;;;13.52;100.00;95742.56;2114802;28;20047;-60
2023/07/05 03:39:25;;;;;;;8.43;5.60;;;;;;;13.59;100.00;95747.28;2115155;28;20043;-60
2023/07/05 03:40:27;;;;;;;10.85;5.80;;;;;;;13.58;100.00;95747.38;2114590;28;20083;-60
2023/07/05 03:41:28;;;;;;;7.65;5.25;;;;;;;13.53;100.00;95752.06;2114169;28;20052;-60
2023/07/05 03:42:29;;;;;;;8.43;5.60;;;;;;;13.53;100.00;95749.47;2105968;28;20557;-61
2023/07/05 03:43:32;;;;;;;9.10;6.45;;;;;;;13.55;100.00;95748.44;2105297;28;20059;-60
2023/07/05 03:44:33;;;;;;;8.45;5.30;;;;;;;13.52;100.00;95751.22;2115201;28;20502;-60
2023/07/05 03:45:35;;;;;;;10.88;5.85;;;;;;;13.42;100.00;95735.31;2114106;28;20058;-61
2023/07/05 03:46:36;;;;;;;10.55;6.07;;;;;;;13.49;100.00;95751.41;2114347;28;20070;-61
2023/07/05 03:47:37;;;;;;;10.27;6.60;;;;;;;13.54;100.00;95749.34;2114440;28;20079;-60
2023/07/05 03:48:40;;;;;;;10.02;5.97;;;;;;;13.45;100.00;95749.94;2114368;28;20051;-60
2023/07/05 03:49:41;;;;;;;12.57;6.57;;;;;;;13.51;100.00;95748.72;2114179;28;20155;-60
2023/07/05 03:50:42;;;;;;;10.07;6.40;;;;;;;13.49;100.00;95758.41;2115002;28;20406;-60
2023/07/05 03:51:43;;;;;;;8.60;6.00;;;;;;;13.50;100.00;95750.50;2114104;28;20062;-61
2023/07/05 03:52:44;;;;;;;11.27;6.25;;;;;;;13.48;100.00;95754.13;2114611;28;20062;-60
2023/07/05 03:53:49;;;;;;;10.18;6.45;;;;;;;13.50;100.00;95747.03;2115057;28;20039;-61
2023/07/05 03:54:50;;;;;;;8.82;5.63;;;;;;;13.50;100.00;95752.25;2115236;28;20043;-61
2023/07/05 03:55:51;;;;;;;11.23;6.60;;;;;;;13.40;100.00;95741.56;2114375;28;20051;-61
2023/07/05 03:56:53;;;;;;;8.75;6.15;;;;;;;13.51;100.00;95746.09;2114376;28;20466;-61
2023/07/05 03:57:56;;;;;;;9.95;6.28;;;;;;;13.52;100.00;95750.38;2115427;28;20047;-61
2023/07/05 03:58:57;;;;;;;8.90;6.25;;;;;;;13.56;100.00;95754.50;2114369;28;20109;-61
2023/07/05 03:59:58;;;;;;;7.60;5.88;;;;;;;13.55;100.00;95751.06;2115077;28;20046;-61
2023/07/05 04:01:07;;;;;;;11.80;6.10;;;;;;;13.55;100.00;95752.78;2114170;28;20494;-60
2023/07/05 04:02:08;;;;;;;10.85;6.05;;;;;;;13.56;100.00;95757.09;2105676;28;20063;-61
2023/07/05 04:03:09;;;;;;;8.70;6.40;;;;;;;13.57;100.00;95748.31;2106358;28;20407;-61
2023/07/05 04:04:10;;;;;;;13.05;6.68;;;;;;;13.60;100.00;95748.97;2115288;28;20051;-61
2023/07/05 04:05:11;;;;;;;9.55;6.47;;;;;;;13.62;100.00;95754.09;2105390;28;20055;-60
2023/07/05 04:06:12;;;;;;;12.50;6.68;;;;;;;13.63;100.00;95754.00;2105499;28;20415;-61
2023/07/05 04:07:14;;;;;;;13.52;6.25;;;;;;;13.66;100.00;95751.19;2115143;28;20052;-61
2023/07/05 04:08:15;;;;;;;8.60;6.25;;;;;;;13.66;100.00;95756.41;2115109;28;20050;-61
2023/07/05 04:09:16;;;;;;;8.45;5.53;;;;;;;13.67;100.00;95762.47;2114970;28;20466;-61
2023/07/05 04:10:17;;;;;;;7.82;5.68;;;;;;;13.70;100.00;95762.28;2114225;28;20059;-61
2023/07/05 04:11:18;;;;;;;9.40;6.32;;;;;;;13.66;100.00;95752.97;2114946;28;20047;-61
2023/07/05 04:12:19;;;;;;;11.13;6.28;;;;;;;13.75;100.00;95762.81;2115073;28;20047;-61
2023/07/05 04:13:20;;;;;;;8.48;6.40;;;;;;;13.81;100.00;95769.41;2114468;28;20059;-61
2023/07/05 04:14:21;;;;;;;10.20;6.60;;;;;;;13.85;100.00;95768.31;2114863;28;20039;-61
2023/07/05 04:15:22;;;;;;;12.15;6.35;;;;;;;13.92;100.00;95763.50;2113929;28;20475;-61
2023/07/05 04:16:24;;;;;;;11.70;5.72;;;;;;;13.95;100.00;95769.38;2114681;28;20056;-61
2023/07/05 04:17:29;;;;;;;7.10;5.20;;;;;;;13.96;100.00;95762.41;2115121;28;20047;-61
2023/07/05 04:18:31;;;;;;;8.50;6.07;;;;;;;13.96;100.00;95758.00;2114955;28;20052;-61
2023/07/05 04:19:32;;;;;;;8.70;6.00;;;;;;;14.07;100.00;95772.97;2114076;28;20062;-61
2023/07/05 04:20:35;;;;;;;8.90;5.63;;;;;;;14.16;100.00;95781.97;2113811;28;20406;-61
2023/07/05 04:21:36;;;;;;;11.02;5.53;;;;;;;14.19;100.00;95780.00;2105218;28;20056;-61
2023/07/05 04:22:41;;;;;;;7.78;5.72;;;;;;;14.24;100.00;95784.94;2105864;28;20377;-61
2023/07/05 04:23:42;;;;;;;9.77;5.13;;;;;;;14.31;100.00;95783.59;2114000;28;20048;-61
2023/07/05 04:24:43;;;;;;;10.25;5.18;;;;;;;14.41;100.00;95784.69;2114935;28;20055;-61
2023/07/05 04:25:44;;;;;;;11.85;5.38;;;;;;;14.42;100.00;95777.69;2114149;28;20055;-61
2023/07/05 04:26:45;;;;;;;9.30;5.25;;;;;;;14.44;100.00;95787.09;2115072;28;20352;-61
2023/07/05 04:27:46;;;;;;;6.78;4.30;;;;;;;14.61;100.00;95782.56;2114146;28;20060;-61
2023/07/05 04:28:48;;;;;;;9.00;5.20;;;;;;;14.60;100.00;95786.94;2114503;28;20071;-61
2023/07/05 04:29:49;;;;;;;8.68;5.13;;;;;;;14.72;100.00;95788.72;2114050;28;20545;-62
2023/07/05 04:30:50;;;;;;;8.40;4.70;;;;;;;14.80;99.38;95790.81;2115124;28;20038;-61
2023/07/05 04:31:51;;;;;;;9.80;4.72;;;;;;;14.76;100.00;95782.38;2114318;28;20054;-61
2023/07/05 04:32:52;;;;;;;8.38;4.60;;;;;;;14.89;98.61;95794.59;2114372;28;20403;-61
2023/07/05 04:33:54;;;;;;;8.68;4.57;;;;;;;14.80;98.12;95784.78;2114297;28;20055;-61
2023/07/05 04:34:55;;;;;;;11.15;4.38;;;;;;;14.84;98.14;95807.16;2114159;28;20055;-61
2023/07/05 04:35:58;;;;;;;10.00;4.82;;;;;;;14.83;97.68;95800.25;2114649;28;20050;-61
2023/07/05 04:37:00;;;;;;;7.25;4.60;;;;;;;14.86;97.78;95813.97;2114168;28;20044;-61
2023/07/05 04:38:01;;;;;;;9.05;4.45;;;;;;;14.74;96.64;95818.22;2113776;28;20047;-61
2023/07/05 04:39:02;;;;;;;10.20;4.30;;;;;;;14.63;95.84;95830.34;2113766;28;20048;-61
2023/07/05 04:40:03;;;;;;;7.35;4.80;;;;;;;14.66;96.77;95851.88;2114113;28;20471;-61
2023/07/05 04:41:04;;;;;;;8.77;4.72;;;;;;;14.62;97.17;95870.44;2114761;28;20039;-61
2023/07/05 04:42:05;;;;;;;10.57;4.63;;;;;;;14.58;97.86;95879.44;2114360;28;20044;-61
2023/07/05 04:43:06;;;;;;;11.00;5.63;;;;;;;14.49;97.36;95886.06;2114699;28;20403;-60
2023/07/05 04:44:09;;;;;;;10.27;5.15;;;;;;;14.57;98.47;95904.75;2115085;28;20379;-62
2023/07/05 04:45:10;;;;;;;8.35;4.13;;;;;;;14.56;98.41;95916.13;2114897;28;20044;-62
2023/07/05 04:46:11;;;;;;;6.70;4.53;;;;;;;14.56;98.66;95918.72;2114210;28;20047;-62
2023/07/05 04:47:12;;;;;;;7.60;4.47;;;;;;;14.53;98.16;95916.31;2115028;28;20039;-62
2023/07/05 04:48:13;;;;;;;10.40;4.80;;;;;;;14.57;98.27;95938.72;2114999;28;20375;-61
2023/07/05 04:49:14;;;;;;;8.63;4.32;;;;;;;14.53;98.75;95938.06;2114993;28;20063;-61
2023/07/05 04:50:16;;;;;;;7.53;4.32;;;;;;;14.51;98.31;95944.28;2114393;28;20075;-61
2023/07/05 04:51:17;;;;;;;6.05;3.40;;;;;;;14.43;98.75;95942.16;2113913;28;20047;-61
2023/07/05 04:52:18;;;;;;;6.47;4.13;;;;;;;14.36;98.55;95938.28;2114973;28;20050;-61
2023/07/05 04:53:19;;;;;;;5.20;3.95;;;;;;;14.46;98.96;95952.44;2114528;28;20058;-61
2023/07/05 04:54:20;;;;;;;4.78;3.75;;;;;;;14.44;99.16;95956.06;2114610;28;20055;-64
2023/07/05 04:55:22;;;;;;;5.72;4.15;;;;;;;14.42;98.68;95964.00;2114877;28;20047;-61